Time,TemperatureF,DewpointF,PressureIn,WindDirection,WindDirectionDegrees,WindSpeedMPH,WindSpeedGustMPH,Humidity,HourlyPrecipIn,Conditions,Clouds,dailyrainin,SoftwareType,DateUTC
2013-05-03 00:10:00,34.3,25.2,30.34,North,0,0.0,-999.0,69,-99.99,,,0.00,Acu-Link.com,2013-05-03 05:10:00,
2013-05-03 00:25:00,34.0,24.9,30.34,NNW,337,8.3,-999.0,69,-99.99,,,0.00,Acu-Link.com,2013-05-03 05:25:00,
2013-05-03 00:40:00,33.6,24.5,30.35,North,0,2.2,-999.0,69,-99.99,,,0.00,Acu-Link.com,2013-05-03 05:40:00,
2013-05-03 00:56:00,33.1,24.4,30.34,North,0,3.2,-999.0,70,-99.99,,,0.00,Acu-Link.com,2013-05-03 05:56:00,
2013-05-03 01:11:00,32.7,24.0,30.34,North,0,2.2,-999.0,70,-99.99,,,0.00,Acu-Link.com,2013-05-03 06:11:00,
2013-05-03 01:27:00,32.5,24.2,30.33,North,0,4.2,-999.0,71,-99.99,,,0.00,Acu-Link.com,2013-05-03 06:27:00,
2013-05-03 01:42:00,32.5,24.2,30.33,NE,45,3.2,-999.0,71,-99.99,,,0.00,Acu-Link.com,2013-05-03 06:42:00,
2013-05-03 01:58:00,32.5,24.2,30.34,North,0,2.7,-999.0,71,-99.99,,,0.00,Acu-Link.com,2013-05-03 06:58:00,
2013-05-03 02:13:00,32.5,24.2,30.31,North,0,1.1,-999.0,71,-99.99,,,0.00,Acu-Link.com,2013-05-03 07:13:00,
2013-05-03 02:28:00,32.5,24.2,30.31,NNE,22,2.7,-999.0,71,-99.99,,,0.00,Acu-Link.com,2013-05-03 07:28:00,
2013-05-03 02:44:00,32.2,24.2,30.30,NNE,22,4.2,-999.0,72,-99.99,,,0.00,Acu-Link.com,2013-05-03 07:44:00,
2013-05-03 02:59:00,32.2,24.2,30.30,North,0,3.2,-999.0,72,-99.99,,,0.00,Acu-Link.com,2013-05-03 07:59:00,
2013-05-03 03:14:00,32.0,24.0,30.30,NNE,22,2.7,-999.0,72,-99.99,,,0.00,Acu-Link.com,2013-05-03 08:14:00,
2013-05-03 03:30:00,31.5,23.9,30.30,NNE,22,2.2,-999.0,73,-99.99,,,0.00,Acu-Link.com,2013-05-03 08:30:00,
2013-05-03 03:45:00,31.1,23.5,30.29,North,0,5.3,-999.0,73,-99.99,,,0.00,Acu-Link.com,2013-05-03 08:45:00,
2013-05-03 04:00:00,31.1,23.8,30.29,NNE,22,3.7,-999.0,74,-99.99,,,0.00,Acu-Link.com,2013-05-03 09:00:00,
2013-05-03 04:15:00,30.9,23.6,30.28,NE,45,5.8,-999.0,74,-99.99,,,0.00,Acu-Link.com,2013-05-03 09:15:00,
2013-05-03 04:30:00,30.7,23.4,30.27,East,90,2.2,-999.0,74,-99.99,,,0.00,Acu-Link.com,2013-05-03 09:30:00,
2013-05-03 04:46:00,30.7,23.4,30.28,North,0,2.7,-999.0,74,-99.99,,,0.00,Acu-Link.com,2013-05-03 09:46:00,
2013-05-03 05:01:00,30.2,23.2,30.28,North,0,5.3,-999.0,75,-99.99,,,0.00,Acu-Link.com,2013-05-03 10:01:00,
2013-05-03 05:16:00,29.8,22.9,30.28,North,0,2.2,-999.0,75,-99.99,,,0.00,Acu-Link.com,2013-05-03 10:16:00,
2013-05-03 05:31:00,29.7,22.8,30.28,NNE,22,1.7,-999.0,75,-99.99,,,0.00,Acu-Link.com,2013-05-03 10:31:00,
2013-05-03 05:47:00,29.7,22.8,30.27,NNE,22,1.7,-999.0,75,-99.99,,,0.00,Acu-Link.com,2013-05-03 10:47:00,
2013-05-03 06:02:00,29.7,22.8,30.27,NNE,22,2.7,-999.0,75,-99.99,,,0.00,Acu-Link.com,2013-05-03 11:02:00,
2013-05-03 06:17:00,30.4,23.4,30.26,NNE,22,2.7,-999.0,75,-99.99,,,0.00,Acu-Link.com,2013-05-03 11:17:00,
2013-05-03 06:32:00,30.7,23.4,30.26,NE,45,3.2,-999.0,74,-99.99,,,0.00,Acu-Link.com,2013-05-03 11:32:00,
2013-05-03 06:47:00,30.9,23.6,30.28,North,0,6.3,-999.0,74,-99.99,,,0.00,Acu-Link.com,2013-05-03 11:47:00,
2013-05-03 07:03:00,31.3,23.7,30.26,NNW,337,2.7,-999.0,73,-99.99,,,0.00,Acu-Link.com,2013-05-03 12:03:00,
2013-05-03 07:18:00,31.6,23.6,30.25,NNE,22,3.2,-999.0,72,-99.99,,,0.00,Acu-Link.com,2013-05-03 12:18:00,
2013-05-03 07:33:00,32.2,24.2,30.26,NE,45,3.7,-999.0,72,-99.99,,,0.00,Acu-Link.com,2013-05-03 12:33:00,
2013-05-03 07:49:00,32.5,24.5,30.25,North,0,3.2,-999.0,72,-99.99,,,0.00,Acu-Link.com,2013-05-03 12:49:00,
2013-05-03 08:04:00,33.4,25.0,30.26,NNE,22,2.2,-999.0,71,-99.99,,,0.00,Acu-Link.com,2013-05-03 13:04:00,
2013-05-03 08:19:00,34.0,25.3,30.24,North,0,3.7,-999.0,70,-99.99,,,0.00,Acu-Link.com,2013-05-03 13:19:00,
2013-05-03 08:35:00,34.5,25.7,30.24,NNE,22,2.7,-999.0,70,-99.99,,,0.00,Acu-Link.com,2013-05-03 13:35:00,
2013-05-03 08:50:00,36.0,26.5,30.24,NNE,22,2.2,-999.0,68,-99.99,,,0.00,Acu-Link.com,2013-05-03 13:50:00,
2013-05-03 09:05:00,35.4,25.9,30.23,NE,45,4.7,-999.0,68,-99.99,,,0.00,Acu-Link.com,2013-05-03 14:05:00,
2013-05-03 09:20:00,35.8,26.3,30.23,North,0,2.7,-999.0,68,-99.99,,,0.00,Acu-Link.com,2013-05-03 14:20:00,
2013-05-03 09:36:00,36.3,26.4,30.21,NNE,22,5.3,-999.0,67,-99.99,,,0.00,Acu-Link.com,2013-05-03 14:36:00,
2013-05-03 09:51:00,35.4,26.9,30.22,NNE,22,5.3,-999.0,71,-99.99,,,0.00,Acu-Link.com,2013-05-03 14:51:00,
2013-05-03 10:06:00,36.3,27.5,30.20,East,90,4.7,-999.0,70,-99.99,,,0.00,Acu-Link.com,2013-05-03 15:06:00,
2013-05-03 10:21:00,35.4,28.6,30.21,NNE,22,2.7,-999.0,76,-99.99,,,0.00,Acu-Link.com,2013-05-03 15:21:00,
2013-05-03 10:36:00,35.4,29.2,30.23,NE,45,6.8,-999.0,78,-99.99,,,0.00,Acu-Link.com,2013-05-03 15:36:00,
2013-05-03 10:52:00,34.7,29.5,30.23,NE,45,5.8,-999.0,81,-99.99,,,0.00,Acu-Link.com,2013-05-03 15:52:00,
2013-05-03 11:07:00,35.4,29.9,30.22,North,0,3.2,-999.0,80,-99.99,,,0.00,Acu-Link.com,2013-05-03 16:07:00,
2013-05-03 11:22:00,35.1,29.3,30.21,North,0,5.3,-999.0,79,-99.99,,,0.00,Acu-Link.com,2013-05-03 16:22:00,
2013-05-03 11:38:00,35.8,29.6,30.22,NNE,22,3.7,-999.0,78,-99.99,,,0.00,Acu-Link.com,2013-05-03 16:38:00,
2013-05-03 11:53:00,36.3,28.8,30.20,East,90,4.7,-999.0,74,-99.99,,,0.00,Acu-Link.com,2013-05-03 16:53:00,
2013-05-03 12:08:00,37.0,29.8,30.18,NE,45,3.2,-999.0,75,-99.99,,,0.00,Acu-Link.com,2013-05-03 17:08:00,
2013-05-03 12:23:00,36.9,29.4,30.19,NE,45,9.4,-999.0,74,-99.99,,,0.00,Acu-Link.com,2013-05-03 17:23:00,
2013-05-03 12:38:00,36.9,30.1,30.17,North,0,6.3,-999.0,76,-99.99,,,0.00,Acu-Link.com,2013-05-03 17:38:00,
2013-05-03 12:53:00,37.4,30.5,30.17,ESE,112,2.7,-999.0,76,-99.99,,,0.00,Acu-Link.com,2013-05-03 17:53:00,
2013-05-03 13:08:00,38.7,32.1,30.15,NNE,22,4.2,-999.0,77,-99.99,,,0.00,Acu-Link.com,2013-05-03 18:08:00,
2013-05-03 13:23:00,38.1,31.5,30.15,North,0,7.3,-999.0,77,-99.99,,,0.00,Acu-Link.com,2013-05-03 18:23:00,
2013-05-03 13:39:00,38.3,31.7,30.15,NNE,22,2.7,-999.0,77,-99.99,,,0.00,Acu-Link.com,2013-05-03 18:39:00,
2013-05-03 13:54:00,38.7,31.5,30.15,ENE,67,4.2,-999.0,75,-99.99,,,0.00,Acu-Link.com,2013-05-03 18:54:00,
2013-05-03 14:09:00,38.1,31.9,30.15,North,0,2.7,-999.0,78,-99.99,,,0.00,Acu-Link.com,2013-05-03 19:09:00,
2013-05-03 14:24:00,37.9,31.7,30.14,NNE,22,4.7,-999.0,78,-99.99,,,0.01,Acu-Link.com,2013-05-03 19:24:00,
2013-05-03 14:39:00,37.2,32.2,30.14,NNE,22,4.7,-999.0,82,-99.99,,,0.01,Acu-Link.com,2013-05-03 19:39:00,
2013-05-03 14:54:00,37.4,32.4,30.13,NNW,337,3.7,-999.0,82,-99.99,,,0.01,Acu-Link.com,2013-05-03 19:54:00,
2013-05-03 15:10:00,37.2,32.2,30.14,NNE,22,4.2,-999.0,82,-99.99,,,0.01,Acu-Link.com,2013-05-03 20:10:00,
2013-05-03 15:25:00,36.9,32.2,30.12,East,90,3.7,-999.0,83,-99.99,,,0.02,Acu-Link.com,2013-05-03 20:25:00,
2013-05-03 15:40:00,36.7,32.6,30.13,North,0,4.2,-999.0,85,-99.99,,,0.02,Acu-Link.com,2013-05-03 20:40:00,
2013-05-03 15:55:00,36.9,33.1,30.13,ESE,112,3.2,-999.0,86,-99.99,,,0.02,Acu-Link.com,2013-05-03 20:55:00,
2013-05-03 16:10:00,36.0,32.5,30.12,NE,45,4.2,-999.0,87,-99.99,,,0.02,Acu-Link.com,2013-05-03 21:10:00,
2013-05-03 16:25:00,35.8,32.6,30.13,North,0,5.3,-999.0,88,-99.99,,,0.03,Acu-Link.com,2013-05-03 21:25:00,
2013-05-03 16:41:00,35.6,32.7,30.11,NNE,22,4.7,-999.0,89,-99.99,,,0.03,Acu-Link.com,2013-05-03 21:41:00,
2013-05-03 16:56:00,35.4,32.2,30.09,ESE,112,2.7,-999.0,88,-99.99,,,0.03,Acu-Link.com,2013-05-03 21:56:00,
2013-05-03 17:11:00,35.8,32.3,30.11,NNE,22,4.2,-999.0,87,-99.99,,,0.03,Acu-Link.com,2013-05-03 22:11:00,
2013-05-03 17:26:00,35.8,32.3,30.11,East,90,3.7,-999.0,87,-99.99,,,0.03,Acu-Link.com,2013-05-03 22:26:00,
2013-05-03 17:41:00,35.8,32.3,30.10,ENE,67,3.2,-999.0,87,-99.99,,,0.03,Acu-Link.com,2013-05-03 22:41:00,
2013-05-03 17:56:00,35.4,32.2,30.10,NNE,22,2.2,-999.0,88,-99.99,,,0.03,Acu-Link.com,2013-05-03 22:56:00,
2013-05-03 18:11:00,35.4,32.2,30.11,ESE,112,4.2,-999.0,88,-99.99,,,0.04,Acu-Link.com,2013-05-03 23:11:00,
2013-05-03 18:26:00,35.6,32.4,30.10,NNE,22,4.2,-999.0,88,-99.99,,,0.04,Acu-Link.com,2013-05-03 23:26:00,
2013-05-03 18:42:00,35.2,31.7,30.11,ENE,67,6.8,-999.0,87,-99.99,,,0.04,Acu-Link.com,2013-05-03 23:42:00,
2013-05-03 18:57:00,34.9,31.7,30.12,North,0,3.2,-999.0,88,-99.99,,,0.04,Acu-Link.com,2013-05-03 23:57:00,
2013-05-03 19:12:00,34.7,31.5,30.10,NNE,22,2.2,-999.0,88,-99.99,,,0.05,Acu-Link.com,2013-05-04 00:12:00,
2013-05-03 19:27:00,34.3,31.4,30.12,NE,45,6.8,-999.0,89,-99.99,,,0.05,Acu-Link.com,2013-05-04 00:27:00,
2013-05-03 19:42:00,34.2,31.9,30.11,NNE,22,4.2,-999.0,91,-99.99,,,0.05,Acu-Link.com,2013-05-04 00:42:00,
2013-05-03 19:57:00,34.0,31.7,30.12,NNE,22,3.7,-999.0,91,-99.99,,,0.06,Acu-Link.com,2013-05-04 00:57:00,
2013-05-03 20:12:00,33.8,31.5,30.12,East,90,4.2,-999.0,91,-99.99,,,0.06,Acu-Link.com,2013-05-04 01:12:00,
2013-05-03 20:28:00,33.8,31.7,30.11,North,0,4.2,-999.0,92,-99.99,,,0.06,Acu-Link.com,2013-05-04 01:28:00,
2013-05-03 20:43:00,33.6,31.5,30.11,ENE,67,4.2,-999.0,92,-99.99,,,0.06,Acu-Link.com,2013-05-04 01:43:00,
2013-05-03 20:58:00,33.6,31.8,30.10,ENE,67,2.7,-999.0,93,-99.99,,,0.07,Acu-Link.com,2013-05-04 01:58:00,
2013-05-03 21:13:00,33.4,31.6,30.09,North,0,3.2,-999.0,93,-99.99,,,0.07,Acu-Link.com,2013-05-04 02:13:00,
2013-05-03 21:28:00,33.3,31.2,30.10,North,0,6.3,-999.0,92,-99.99,,,0.07,Acu-Link.com,2013-05-04 02:28:00,
2013-05-03 21:44:00,33.3,31.5,30.10,NNE,22,2.7,-999.0,93,-99.99,,,0.07,Acu-Link.com,2013-05-04 02:44:00,
2013-05-03 21:59:00,33.1,31.3,30.10,NE,45,3.7,-999.0,93,-99.99,,,0.07,Acu-Link.com,2013-05-04 02:59:00,
2013-05-03 22:14:00,33.1,31.3,30.10,ENE,67,3.2,-999.0,93,-99.99,,,0.07,Acu-Link.com,2013-05-04 03:14:00,
2013-05-03 22:30:00,32.9,31.4,30.10,North,0,3.2,-999.0,94,-99.99,,,0.08,Acu-Link.com,2013-05-04 03:30:00,
2013-05-03 22:45:00,32.7,31.2,30.08,ENE,67,6.3,-999.0,94,-99.99,,,0.08,Acu-Link.com,2013-05-04 03:45:00,
2013-05-03 23:00:00,32.7,31.2,30.09,NNE,22,5.3,-999.0,94,-99.99,,,0.08,Acu-Link.com,2013-05-04 04:00:00,
2013-05-03 23:15:00,32.7,31.2,30.10,SSE,157,2.7,-999.0,94,-99.99,,,0.08,Acu-Link.com,2013-05-04 04:15:00,
2013-05-03 23:31:00,32.5,30.7,30.09,NE,45,2.7,-999.0,93,-99.99,,,0.08,Acu-Link.com,2013-05-04 04:31:00,
2013-05-03 23:46:00,32.5,30.7,30.08,ESE,112,2.7,-999.0,93,-99.99,,,0.08,Acu-Link.com,2013-05-04 04:46:00,